BAW25GQ TBPB-EGLL
Flight info
| Callsign | BAW25GQ |
|---|---|
| Flight time | N/A |
| Altitude | 35000 |
| Route | FISST/M086F350 DCT 19N055W 23N050W 26N045W 29N040W 35N030W/M086F370 DCT GINSU DCT 41N020W DCT GONAN DCT ETIKI DCT REGHI/N0493F370 DCT AMPOP DCT SIDDI DCT DAWLY DCT ELRIP DCT OTMET |
| Aircraft | B77W/H-SDE1E2E3FGHIJ2J3J4J5M1RWXY/LB1D1 |
Departure
| Time | 2026-04-27 13:45 |
|---|---|
| Airport | Grantley Adams International Airport (TBPB) |
Arrival
| Time | N/A |
|---|---|
| Airport | London Heathrow Airport (EGLL) |
| Time | Latitude | Longitude | Altitude | Speed | Heading |
|---|---|---|---|---|---|
| 2026-04-27 13:07 | 13.07927 | -59.48489 | 184 ft | 0 kts | 346° |
| 2026-04-27 13:30 | 13.07913 | -59.48486 | 183 ft | 2 kts | 346° |
| 2026-04-27 13:31 | 13.07898 | -59.48482 | 182 ft | 2 kts | 346° |
| 2026-04-27 13:31 | 13.07885 | -59.48478 | 182 ft | 0 kts | 346° |
| 2026-04-27 13:31 | 13.07875 | -59.48476 | 181 ft | 2 kts | 336° |
| 2026-04-27 13:31 | 13.07862 | -59.48467 | 181 ft | 2 kts | 311° |
| 2026-04-27 13:32 | 13.07854 | -59.48454 | 182 ft | 2 kts | 290° |
| 2026-04-27 13:32 | 13.07851 | -59.48440 | 182 ft | 2 kts | 270° |
| 2026-04-27 13:32 | 13.07852 | -59.48430 | 183 ft | 0 kts | 256° |
| 2026-04-27 13:32 | 13.07853 | -59.48426 | 183 ft | 0 kts | 255° |
| 2026-04-27 13:36 | 13.07852 | -59.48428 | 183 ft | 1 kts | 255° |
| 2026-04-27 13:36 | 13.07848 | -59.48445 | 183 ft | 4 kts | 256° |
| 2026-04-27 13:36 | 13.07838 | -59.48488 | 183 ft | 7 kts | 256° |
| 2026-04-27 13:37 | 13.07822 | -59.48555 | 183 ft | 11 kts | 255° |
| 2026-04-27 13:37 | 13.07800 | -59.48642 | 183 ft | 14 kts | 256° |
| 2026-04-27 13:37 | 13.07780 | -59.48720 | 183 ft | 8 kts | 250° |
| 2026-04-27 13:37 | 13.07742 | -59.48782 | 183 ft | 12 kts | 241° |
| 2026-04-27 13:38 | 13.07714 | -59.48877 | 182 ft | 15 kts | 256° |
| 2026-04-27 13:38 | 13.07685 | -59.48992 | 182 ft | 18 kts | 255° |
| 2026-04-27 13:38 | 13.07651 | -59.49131 | 182 ft | 21 kts | 256° |
| 2026-04-27 13:38 | 13.07612 | -59.49288 | 182 ft | 23 kts | 256° |
| 2026-04-27 13:39 | 13.07569 | -59.49461 | 182 ft | 26 kts | 256° |
| 2026-04-27 13:39 | 13.07524 | -59.49647 | 183 ft | 23 kts | 256° |
| 2026-04-27 13:39 | 13.07484 | -59.49809 | 183 ft | 19 kts | 256° |
| 2026-04-27 13:39 | 13.07449 | -59.49953 | 184 ft | 21 kts | 256° |
| 2026-04-27 13:40 | 13.07410 | -59.50112 | 185 ft | 24 kts | 256° |
| 2026-04-27 13:40 | 13.07367 | -59.50286 | 186 ft | 22 kts | 256° |
| 2026-04-27 13:40 | 13.07327 | -59.50449 | 187 ft | 24 kts | 256° |
| 2026-04-27 13:40 | 13.07292 | -59.50592 | 188 ft | 18 kts | 256° |
| 2026-04-27 13:41 | 13.07268 | -59.50692 | 189 ft | 8 kts | 256° |
| 2026-04-27 13:41 | 13.07237 | -59.50731 | 190 ft | 6 kts | 205° |
| 2026-04-27 13:41 | 13.07207 | -59.50731 | 190 ft | 3 kts | 167° |
| 2026-04-27 13:41 | 13.07199 | -59.50729 | 189 ft | 0 kts | 167° |
| 2026-04-27 13:42 | 13.07180 | -59.50724 | 189 ft | 4 kts | 164° |
| 2026-04-27 13:42 | 13.07142 | -59.50713 | 189 ft | 6 kts | 164° |
| 2026-04-27 13:42 | 13.07120 | -59.50706 | 189 ft | 0 kts | 160° |
| 2026-04-27 13:42 | 13.07107 | -59.50692 | 189 ft | 4 kts | 119° |
| 2026-04-27 13:43 | 13.07106 | -59.50677 | 189 ft | 1 kts | 77° |
| 2026-04-27 13:43 | 13.07107 | -59.50675 | 189 ft | 0 kts | 77° |
| 2026-04-27 13:44 | 13.07120 | -59.50618 | 188 ft | 25 kts | 76° |
| 2026-04-27 13:44 | 13.07225 | -59.50187 | 184 ft | 97 kts | 76° |
| 2026-04-27 13:44 | 13.07442 | -59.49305 | 181 ft | 158 kts | 76° |
| 2026-04-27 13:45 | 13.07747 | -59.48081 | 460 ft | 189 kts | 78° |
| 2026-04-27 13:45 | 13.08087 | -59.46795 | 1324 ft | 186 kts | 75° |
| 2026-04-27 13:45 | 13.08473 | -59.45529 | 1816 ft | 189 kts | 74° |
| 2026-04-27 13:45 | 13.08878 | -59.44184 | 2052 ft | 205 kts | 73° |
| 2026-04-27 13:46 | 13.09655 | -59.42890 | 2220 ft | 228 kts | 45° |
| 2026-04-27 13:46 | 13.11013 | -59.41871 | 2446 ft | 246 kts | 38° |
| 2026-04-27 13:46 | 13.12470 | -59.40875 | 2895 ft | 251 kts | 38° |
| 2026-04-27 13:46 | 13.13939 | -59.39875 | 3304 ft | 257 kts | 37° |
| 2026-04-27 13:47 | 13.15426 | -59.38863 | 4161 ft | 256 kts | 37° |
| 2026-04-27 13:47 | 13.16914 | -59.37849 | 4914 ft | 260 kts | 36° |
| 2026-04-27 13:47 | 13.18457 | -59.36798 | 5620 ft | 265 kts | 36° |
| 2026-04-27 13:47 | 13.20006 | -59.35743 | 6361 ft | 268 kts | 36° |
| 2026-04-27 13:48 | 13.21557 | -59.34687 | 7057 ft | 271 kts | 36° |
| 2026-04-27 13:48 | 13.23150 | -59.33602 | 7765 ft | 274 kts | 35° |
| 2026-04-27 13:48 | 13.24752 | -59.32510 | 8449 ft | 278 kts | 35° |
| 2026-04-27 13:48 | 13.26376 | -59.31404 | 9103 ft | 282 kts | 35° |
| 2026-04-27 13:49 | 13.28030 | -59.30277 | 9792 ft | 284 kts | 35° |
| 2026-04-27 13:49 | 13.29699 | -59.29139 | 10409 ft | 291 kts | 35° |
| 2026-04-27 13:49 | 13.31437 | -59.27954 | 10747 ft | 307 kts | 35° |
| 2026-04-27 13:49 | 13.33294 | -59.26687 | 11066 ft | 324 kts | 34° |
| 2026-04-27 13:50 | 13.35229 | -59.25366 | 11405 ft | 340 kts | 35° |
| 2026-04-27 13:50 | 13.37255 | -59.23984 | 11770 ft | 355 kts | 34° |
| 2026-04-27 13:50 | 13.39370 | -59.22541 | 12118 ft | 371 kts | 34° |
| 2026-04-27 13:50 | 13.41583 | -59.21030 | 12464 ft | 385 kts | 34° |
| 2026-04-27 13:51 | 13.43880 | -59.19463 | 12906 ft | 397 kts | 34° |
| 2026-04-27 13:51 | 13.46183 | -59.17891 | 13524 ft | 402 kts | 34° |
| 2026-04-27 13:51 | 13.48542 | -59.16281 | 14196 ft | 406 kts | 34° |
| 2026-04-27 13:51 | 13.50916 | -59.14659 | 14826 ft | 411 kts | 34° |
| 2026-04-27 13:52 | 13.53334 | -59.13008 | 15422 ft | 418 kts | 34° |
| 2026-04-27 13:52 | 13.55752 | -59.11356 | 16017 ft | 423 kts | 34° |
| 2026-04-27 13:52 | 13.58246 | -59.09652 | 16634 ft | 429 kts | 34° |
| 2026-04-27 13:52 | 13.60740 | -59.07948 | 17211 ft | 434 kts | 34° |
| 2026-04-27 13:53 | 13.65864 | -59.04445 | 18382 ft | 443 kts | 34° |
| 2026-04-27 13:53 | 13.68435 | -59.02687 | 18920 ft | 448 kts | 34° |
| 2026-04-27 13:53 | 13.71050 | -59.00898 | 19458 ft | 452 kts | 34° |
| 2026-04-27 13:54 | 13.73697 | -58.99086 | 19961 ft | 457 kts | 34° |
| 2026-04-27 13:54 | 13.76369 | -58.97257 | 20471 ft | 461 kts | 35° |
| 2026-04-27 13:54 | 13.79043 | -58.95426 | 20949 ft | 465 kts | 35° |
| 2026-04-27 13:54 | 13.81781 | -58.93550 | 21421 ft | 470 kts | 35° |
| 2026-04-27 13:55 | 13.84525 | -58.91671 | 21864 ft | 474 kts | 35° |
| 2026-04-27 13:55 | 13.87290 | -58.89775 | 22291 ft | 479 kts | 35° |
| 2026-04-27 13:55 | 13.90093 | -58.87854 | 22754 ft | 483 kts | 35° |
| 2026-04-27 13:55 | 13.92887 | -58.85938 | 23262 ft | 485 kts | 35° |
| 2026-04-27 13:56 | 13.95731 | -58.83987 | 23789 ft | 488 kts | 35° |
| 2026-04-27 13:56 | 13.98586 | -58.82028 | 24292 ft | 490 kts | 35° |
| 2026-04-27 13:56 | 14.01446 | -58.80065 | 24770 ft | 494 kts | 35° |
| 2026-04-27 13:56 | 14.04319 | -58.78092 | 25263 ft | 497 kts | 34° |
| 2026-04-27 13:57 | 14.07223 | -58.76098 | 25760 ft | 499 kts | 34° |
| 2026-04-27 13:57 | 14.10127 | -58.74103 | 26239 ft | 503 kts | 34° |
| 2026-04-27 13:57 | 14.13046 | -58.72097 | 26717 ft | 506 kts | 34° |
| 2026-04-27 13:57 | 14.15990 | -58.70073 | 27181 ft | 509 kts | 34° |
| 2026-04-27 13:58 | 14.18956 | -58.68034 | 27653 ft | 512 kts | 34° |
| 2026-04-27 13:58 | 14.21932 | -58.65987 | 28084 ft | 516 kts | 34° |
| 2026-04-27 13:58 | 14.24949 | -58.63911 | 28563 ft | 519 kts | 33° |
| 2026-04-27 13:58 | 14.27975 | -58.61829 | 29020 ft | 522 kts | 33° |
| 2026-04-27 13:59 | 14.30981 | -58.59759 | 29487 ft | 524 kts | 33° |
| 2026-04-27 13:59 | 14.34040 | -58.57652 | 30071 ft | 524 kts | 33° |
| 2026-04-27 13:59 | 14.37078 | -58.55559 | 30729 ft | 522 kts | 33° |
| 2026-04-27 13:59 | 14.40094 | -58.53480 | 31392 ft | 520 kts | 33° |
| 2026-04-27 14:00 | 14.43105 | -58.51405 | 32066 ft | 517 kts | 33° |
| 2026-04-27 14:00 | 14.46065 | -58.49364 | 32606 ft | 517 kts | 33° |
| 2026-04-27 14:00 | 14.49088 | -58.47278 | 33176 ft | 516 kts | 33° |
| 2026-04-27 14:00 | 14.52047 | -58.45237 | 33769 ft | 515 kts | 33° |
| 2026-04-27 14:01 | 14.55041 | -58.43170 | 34351 ft | 514 kts | 33° |
| 2026-04-27 14:01 | 14.58016 | -58.41116 | 34939 ft | 512 kts | 33° |
| 2026-04-27 14:01 | 14.60965 | -58.39079 | 35058 ft | 516 kts | 33° |
| 2026-04-27 14:02 | 14.66971 | -58.34928 | 35067 ft | 512 kts | 33° |
| 2026-04-27 14:02 | 14.73020 | -58.30745 | 35062 ft | 512 kts | 33° |
| 2026-04-27 14:03 | 14.79118 | -58.26525 | 35067 ft | 512 kts | 33° |
| 2026-04-27 14:03 | 14.85037 | -58.22426 | 35069 ft | 512 kts | 33° |
| 2026-04-27 14:04 | 14.90989 | -58.18302 | 35075 ft | 512 kts | 33° |
| 2026-04-27 14:04 | 14.96906 | -58.14199 | 35073 ft | 512 kts | 33° |
| 2026-04-27 14:05 | 15.02831 | -58.10088 | 35077 ft | 513 kts | 33° |
| 2026-04-27 14:05 | 15.08789 | -58.05951 | 35078 ft | 513 kts | 33° |
| 2026-04-27 14:06 | 15.14775 | -58.01792 | 35076 ft | 513 kts | 33° |
| 2026-04-27 14:06 | 15.20688 | -57.97680 | 35078 ft | 512 kts | 33° |
| 2026-04-27 14:07 | 15.26629 | -57.93546 | 35081 ft | 513 kts | 33° |
| 2026-04-27 14:07 | 15.32555 | -57.89420 | 35078 ft | 511 kts | 32° |
| 2026-04-27 14:08 | 15.38485 | -57.85289 | 35087 ft | 512 kts | 32° |
| 2026-04-27 14:08 | 15.44402 | -57.81163 | 35086 ft | 513 kts | 32° |
| 2026-04-27 14:09 | 15.50380 | -57.76992 | 35088 ft | 514 kts | 32° |
| 2026-04-27 14:09 | 15.56304 | -57.72856 | 35086 ft | 513 kts | 32° |
| 2026-04-27 14:10 | 15.62306 | -57.68662 | 35090 ft | 513 kts | 32° |
| 2026-04-27 14:10 | 15.68196 | -57.64544 | 35091 ft | 513 kts | 32° |
| 2026-04-27 14:11 | 15.74130 | -57.60392 | 35090 ft | 513 kts | 32° |
| 2026-04-27 14:11 | 15.80050 | -57.56246 | 35096 ft | 513 kts | 32° |
| 2026-04-27 14:12 | 15.86017 | -57.52066 | 35096 ft | 513 kts | 32° |
| 2026-04-27 14:12 | 15.91949 | -57.47906 | 35097 ft | 513 kts | 32° |
| 2026-04-27 14:13 | 15.97916 | -57.43719 | 35099 ft | 514 kts | 32° |